Preemption, Illinois
Current Conditions -  °F | °C
As of 10:52 AM on Wednesday 26 Nov 2014 (Local Time) from KMLI Reporting Station
Haze Haze  
Wind Chill: 17°   Ceiling: 6500
Heat Index: 27°   Visibility: 6mi
Dew Point: 23°   Wind: 10mph
Humidity: 85%   Direction: 100°E
Pressure: 30.07"   Gusts: NA
Location:  41.31°N, 90.58°W
Report Text: KMLI 261652Z 10009KT 6SM BR OVC065 M03/M05 A3007 RMK AO2 SLP191 T10281050
Loading
Personal Weather Stations






























Interactive Weather Map New forecast layout! Learn more

10-Day Weather Forecast

Advertisements
Track Severe Weather on mobile